Lees voor het posten de FAQ.

Als je iets zoekt op het forum kun je de zoekmachine raadplegen.

Onderwerp Replies Naam starter Datum
Schitteringen in beeld tv Schitteringen in beeld tv 1 2 laatste 32 Redhead 24-10-2017 12:43:46
Samsung ue40b7020wpxxn click geluid start niet 7 Mister123 23-10-2017 16:47:04
Philips 47PFL6678 k/12 start soms niet op 14 MM71 22-10-2017 18:33:43
Samsung LE26S81B blijft vaak hangen in standby (achteruitgerepareerd?) 8 maartenbakker 21-10-2017 11:58:33
m46qck761x123 donker beeld 3 barrye 20-10-2017 21:44:09
Samsung UE37C6000 kompleet dood. 9 Nikolai Tesla 19-10-2017 16:46:18
Philips DVD home cinema syteem HTS 6600 6 serge69 19-10-2017 09:38:19
Samsung LT24C300 met hikkende voeding 10 Koekoeksklok 19-10-2017 08:40:42
MT logic LE-207784 5 fred-loes 18-10-2017 19:58:15
Philips 42PFL6158K/12 6 Doubled78 18-10-2017 10:16:06
LED LCD backlight aansturing. 2 mfvern 17-10-2017 19:44:03
Samsung LE40S62BX 17 max23 17-10-2017 18:38:32
Philips 42PF1000 6 akkie2 16-10-2017 18:11:54
kdl46EX500 is dit een T Con klacht? Ook ab probleem. 14 Nikolai Tesla 14-10-2017 22:30:24
Samsung Plasma PS50 PowerBoard 22 FredericVB 14-10-2017 18:47:08
Gesloten techneut gezocht omgeving Arnhem/Westervoort voor reparatie pioneer plasma tv pdp-505mxe 2 mrmoonshiner 12-10-2017 17:40:16
UE46D6500 beeld ? 8 Biggomp 10-10-2017 22:49:55
Panasonic TX-28LK10F valt na 2 seconden uit 10 pw 10-10-2017 18:24:57
le40 a656 20 deregt 10-10-2017 11:16:54
Voeding dood Samsung plasma PS-42C91H Voeding dood Samsung plasma PS-42C91H 1 2 laatste 33 klabam 08-10-2017 21:49:04
42PFL3605 Geen beeld 11 Tobias 08-10-2017 20:28:02
video thomson vp3300 display zegt geen cass als band erin zit 8 gerard1 08-10-2017 18:36:31
LG Plasma tv 42PC1RR Geen beeld wel geluid 6 JimA 06-10-2017 22:12:32
Philips 7CM5279 voeding hikt 10 Techno Turk 06-10-2017 16:24:22
Philips 42pfl9664 geen backlight wel geluid 9 ilrenato 05-10-2017 19:52:40
Filmpje in loop afspelen op LG TV via USB stick. 6 Danny G 05-10-2017 18:13:07
42pfl3605 voeding def IC905 geploft 7 Nico den Haak 04-10-2017 23:35:31
BN44-00552A voeding reparatie BN44-00552A voeding reparatie 1 2 laatste 29 siebo 01-10-2017 19:22:57
Sharp 60le652e geen power 1 barrye 30-09-2017 11:48:05
Wegvallen beeld philips 32pfl5604h/12 6 Tomasini 28-09-2017 21:37:21
43pus6101/12 3 try out 28-09-2017 21:25:50
LG42lf5800 geen beeld. 0 Biggomp 28-09-2017 20:57:04
Samsung ue40d6320 blijft in bootloop hangen 7 Stuif 28-09-2017 20:35:31
Toshiba 40TL938 blijft herstarten 5 Biggomp 27-09-2017 20:43:58
Philips GFL2.20E beeld gecomprimeerd Philips GFL2.20E beeld gecomprimeerd 1 2 laatste 34 markce 27-09-2017 01:52:29
Samsung UE40D5720 bootloop 9 Biggomp 26-09-2017 08:49:45
Panasonic wv-cw860a/g 1 pietplof 25-09-2017 22:59:32
LG 50PC1R flikkerend beeld 2 paolo_55 25-09-2017 18:47:00
Samsung PS42C450BIWXXH start niet op (hikt) 7 paolo_55 25-09-2017 15:50:36
tcon le37a330 vervangen (verschllende versies) 8 Anna1980 22-09-2017 18:45:29
Wat is TVFOX ? 13 Bart64 21-09-2017 22:44:02
Lcd reparatie 6 Ari1981 20-09-2017 10:05:00
Kanalen verspringen Kanalen verspringen 1 2 laatste 25 pa3gws 19-09-2017 19:58:00
JVC HR-S5970E video recorder 8 max23 18-09-2017 11:38:27
programmeren afstandsbediening AB 2 JimA 17-09-2017 23:32:47
LG 26lc51 wit knipperend beeld / wel geluid 3 Ce1190 17-09-2017 18:27:08
Flikkerend beeld op Tatung TV V32ECCB via VGA of DVI niet met SCART 2 Vangheluwe 17-09-2017 18:06:57
horizontale balk onderaan beeld van Panasonic TXP42C2E 3 knuffel 16-09-2017 21:47:25
Sony KDL 40V2500 valt uit; led knippert 9 x 5 Franssel 16-09-2017 12:07:53
Philips LCD start niet op led knippert twee keer 8 Pieter81 16-09-2017 10:36:27